createdAt,value
2017-07-26T00:01:31.348Z,15.80
2017-07-26T00:03:58.794Z,15.80
2017-07-26T00:06:27.005Z,15.90
2017-07-26T00:08:54.496Z,15.90
2017-07-26T00:11:21.956Z,15.90
2017-07-26T00:13:49.420Z,15.90
2017-07-26T00:16:16.887Z,15.90
2017-07-26T00:18:44.332Z,15.90
2017-07-26T00:21:11.909Z,16.00
2017-07-26T00:23:40.129Z,15.80
2017-07-26T00:26:07.627Z,15.80
2017-07-26T00:28:35.081Z,15.90
2017-07-26T00:31:02.553Z,15.90
2017-07-26T00:33:30.762Z,15.90
2017-07-26T00:35:58.217Z,15.90
2017-07-26T00:38:25.685Z,15.90
2017-07-26T00:40:53.159Z,15.90
2017-07-26T00:43:20.617Z,15.90
2017-07-26T00:45:48.076Z,15.80
2017-07-26T00:48:15.539Z,15.80
2017-07-26T00:50:43.092Z,15.80
2017-07-26T00:53:10.555Z,15.80
2017-07-26T00:55:38.006Z,15.80
2017-07-26T00:58:05.440Z,15.80
2017-07-26T01:00:32.930Z,15.80
2017-07-26T01:03:00.376Z,15.80
2017-07-26T01:05:27.934Z,15.80
2017-07-26T01:07:55.372Z,15.80
2017-07-26T01:10:22.819Z,15.80
2017-07-26T01:12:50.278Z,15.80
2017-07-26T01:15:17.725Z,15.80
2017-07-26T01:17:45.207Z,15.80
2017-07-26T01:20:12.635Z,15.80
2017-07-26T01:22:40.118Z,15.90
2017-07-26T01:25:07.576Z,15.80
2017-07-26T01:27:35.041Z,15.80
2017-07-26T01:30:02.517Z,15.80
2017-07-26T01:32:30.774Z,15.80
2017-07-26T01:34:58.212Z,15.80
2017-07-26T01:37:25.680Z,15.80
2017-07-26T01:39:53.150Z,15.80
2017-07-26T01:42:20.591Z,15.80
2017-07-26T01:44:48.036Z,15.80
2017-07-26T01:47:15.508Z,15.80
2017-07-26T01:49:43.052Z,15.80
2017-07-26T01:52:10.517Z,15.80
2017-07-26T01:54:37.968Z,15.80
2017-07-26T01:57:05.434Z,15.80
2017-07-26T01:59:32.884Z,15.80
2017-07-26T02:02:00.374Z,15.80
2017-07-26T02:04:28.577Z,15.80
2017-07-26T02:06:56.018Z,15.80
2017-07-26T02:09:23.483Z,15.80
2017-07-26T02:11:50.923Z,15.70
2017-07-26T02:14:18.396Z,15.70
2017-07-26T02:16:45.844Z,15.70
2017-07-26T02:19:13.318Z,15.70
2017-07-26T02:21:40.785Z,15.70
2017-07-26T02:24:08.236Z,15.70
2017-07-26T02:26:35.720Z,15.70
2017-07-26T02:29:03.173Z,15.70
2017-07-26T02:31:30.729Z,15.70
2017-07-26T02:33:58.208Z,15.70
2017-07-26T02:36:25.747Z,15.70
2017-07-26T02:38:53.325Z,15.70
2017-07-26T02:41:20.813Z,15.70
2017-07-26T02:43:48.268Z,15.70
2017-07-26T02:46:15.732Z,15.70
2017-07-26T02:48:43.202Z,15.70
2017-07-26T02:51:10.796Z,15.70
2017-07-26T02:53:38.361Z,15.70
2017-07-26T02:56:05.844Z,15.70
2017-07-26T02:58:34.187Z,15.70
2017-07-26T03:01:01.748Z,15.70
2017-07-26T03:03:29.248Z,15.60
2017-07-26T03:05:56.684Z,15.70
2017-07-26T03:08:24.907Z,15.60
2017-07-26T03:10:52.382Z,15.60
2017-07-26T03:13:19.825Z,15.70
2017-07-26T03:15:47.304Z,15.60
2017-07-26T03:18:14.755Z,15.70
2017-07-26T03:20:42.201Z,15.60
2017-07-26T03:23:09.672Z,15.60
2017-07-26T03:25:37.215Z,15.60
2017-07-26T03:28:04.696Z,15.60
2017-07-26T03:30:32.916Z,15.60
2017-07-26T03:33:00.355Z,15.60
2017-07-26T03:35:27.863Z,15.60
2017-07-26T03:37:55.427Z,15.60
2017-07-26T03:40:22.986Z,15.60
2017-07-26T03:42:50.441Z,15.60
2017-07-26T03:45:17.915Z,15.60
2017-07-26T03:47:46.116Z,15.60
2017-07-26T03:50:13.565Z,15.60
2017-07-26T03:52:41.048Z,15.60
2017-07-26T03:55:08.537Z,15.60
2017-07-26T03:57:36.004Z,15.60
2017-07-26T04:00:03.451Z,15.70
2017-07-26T04:02:30.921Z,15.70
2017-07-26T04:04:58.389Z,15.70
2017-07-26T04:07:26.603Z,15.70
2017-07-26T04:09:54.059Z,15.70
2017-07-26T04:12:21.527Z,15.70
2017-07-26T04:14:48.972Z,15.70
2017-07-26T04:17:16.445Z,15.70
2017-07-26T04:19:43.893Z,15.70
2017-07-26T04:22:11.367Z,15.70
2017-07-26T04:24:38.808Z,15.70
2017-07-26T04:27:06.263Z,15.70
2017-07-26T04:29:33.739Z,15.70
2017-07-26T04:32:01.185Z,15.70
2017-07-26T04:34:28.656Z,15.80
2017-07-26T04:36:56.117Z,15.80
2017-07-26T04:39:23.580Z,15.80
2017-07-26T04:41:51.023Z,15.80
2017-07-26T04:44:18.493Z,15.80
2017-07-26T04:46:45.939Z,15.80
2017-07-26T04:49:13.390Z,15.80
2017-07-26T04:51:40.857Z,15.80
2017-07-26T04:54:08.400Z,15.80
2017-07-26T04:56:35.868Z,15.80
2017-07-26T04:59:03.322Z,15.80
2017-07-26T05:01:30.777Z,15.80
2017-07-26T05:03:58.240Z,15.80
2017-07-26T05:06:25.692Z,15.80
2017-07-26T05:08:53.271Z,15.80
2017-07-26T05:11:21.487Z,15.80
2017-07-26T05:13:48.972Z,15.90
2017-07-26T05:16:16.444Z,15.90
2017-07-26T05:18:43.893Z,15.90
2017-07-26T05:21:11.351Z,15.90
2017-07-26T05:23:38.792Z,15.90
2017-07-26T05:26:06.269Z,15.90
2017-07-26T05:28:33.755Z,15.90
2017-07-26T05:31:01.224Z,15.90
2017-07-26T05:33:28.691Z,15.90
2017-07-26T05:35:56.153Z,15.90
2017-07-26T05:38:23.737Z,15.90
2017-07-26T05:40:51.202Z,16.00
2017-07-26T05:43:18.643Z,16.00
2017-07-26T05:45:46.142Z,15.90
2017-07-26T05:48:14.358Z,15.90
2017-07-26T05:50:41.795Z,15.90
2017-07-26T05:53:09.267Z,15.90
2017-07-26T05:55:36.716Z,15.90
2017-07-26T05:58:04.219Z,15.90
2017-07-26T06:00:31.655Z,15.90
2017-07-26T06:02:59.215Z,15.90
2017-07-26T06:05:26.665Z,15.90
2017-07-26T06:07:54.124Z,16.00
2017-07-26T06:10:21.613Z,16.00
2017-07-26T06:12:49.840Z,16.00
2017-07-26T06:15:17.313Z,16.00
2017-07-26T06:17:44.760Z,16.00
2017-07-26T06:20:12.235Z,16.00
2017-07-26T06:22:39.685Z,16.00
2017-07-26T06:25:07.145Z,16.00
2017-07-26T06:27:34.608Z,16.00
2017-07-26T06:30:02.057Z,16.10
2017-07-26T06:32:29.544Z,16.10
2017-07-26T06:34:57.760Z,16.10
2017-07-26T06:37:25.188Z,16.10
2017-07-26T06:39:52.672Z,16.10
2017-07-26T06:42:20.133Z,16.10
2017-07-26T06:44:47.585Z,16.10
2017-07-26T06:47:15.048Z,16.10
2017-07-26T06:49:42.511Z,16.10
2017-07-26T06:52:09.987Z,16.10
2017-07-26T06:54:37.431Z,16.10
2017-07-26T06:57:04.887Z,16.10
2017-07-26T06:59:32.353Z,16.10
2017-07-26T07:01:59.798Z,16.00
2017-07-26T07:04:27.263Z,16.00
2017-07-26T07:06:54.721Z,16.00
2017-07-26T07:09:22.269Z,16.00
2017-07-26T07:11:49.750Z,16.00
2017-07-26T07:14:17.289Z,16.10
2017-07-26T07:16:44.735Z,16.00
2017-07-26T07:19:12.215Z,16.10
2017-07-26T07:21:39.653Z,16.10
2017-07-26T07:24:07.117Z,16.10
2017-07-26T07:26:34.556Z,16.10
2017-07-26T07:29:01.998Z,16.20
2017-07-26T07:31:29.483Z,16.20
2017-07-26T07:33:56.924Z,16.20
2017-07-26T07:36:24.504Z,16.20
2017-07-26T07:38:51.978Z,16.30
2017-07-26T07:41:20.201Z,16.30
2017-07-26T07:43:47.668Z,16.30
2017-07-26T07:46:15.143Z,16.40
2017-07-26T07:48:42.580Z,16.40
2017-07-26T07:51:10.060Z,16.40
2017-07-26T07:53:37.599Z,16.40
2017-07-26T07:56:05.057Z,16.40
2017-07-26T07:58:32.498Z,16.40
2017-07-26T08:00:59.941Z,16.40
2017-07-26T08:03:27.403Z,16.40
2017-07-26T08:05:54.901Z,16.40
2017-07-26T08:08:23.075Z,16.40
2017-07-26T08:10:51.333Z,16.40
2017-07-26T08:13:18.816Z,16.40
2017-07-26T08:15:46.245Z,16.40
2017-07-26T08:18:13.717Z,16.40
2017-07-26T08:20:41.195Z,16.40
2017-07-26T08:23:08.647Z,16.40
2017-07-26T08:25:36.860Z,16.50
2017-07-26T08:28:04.346Z,16.50
2017-07-26T08:30:31.822Z,16.40
2017-07-26T08:32:59.265Z,16.40
2017-07-26T08:35:26.940Z,16.40
2017-07-26T08:37:55.213Z,16.40
2017-07-26T08:40:22.675Z,16.40
2017-07-26T08:42:50.116Z,16.40
2017-07-26T08:45:17.552Z,16.40
2017-07-26T08:47:45.020Z,16.40
2017-07-26T08:50:12.577Z,16.40
2017-07-26T08:52:40.044Z,16.40
2017-07-26T08:55:07.491Z,16.40
2017-07-26T08:57:36.022Z,16.30
2017-07-26T09:00:03.473Z,16.30
2017-07-26T09:02:31.684Z,16.30
2017-07-26T09:04:59.154Z,16.30
2017-07-26T09:07:26.699Z,16.30
2017-07-26T09:09:54.152Z,16.30
2017-07-26T09:12:21.623Z,16.30
2017-07-26T09:14:49.075Z,16.30
2017-07-26T09:17:16.531Z,16.30
2017-07-26T09:19:44.088Z,16.30
2017-07-26T09:22:11.573Z,16.30
2017-07-26T09:24:39.785Z,16.30
2017-07-26T09:27:07.248Z,16.30
2017-07-26T09:29:34.718Z,16.30
2017-07-26T09:32:02.164Z,16.30
2017-07-26T09:34:29.669Z,16.20
2017-07-26T09:36:57.118Z,16.30
2017-07-26T09:39:24.583Z,16.20
2017-07-26T09:41:52.025Z,16.20
2017-07-26T09:44:19.577Z,16.20
2017-07-26T09:46:47.112Z,16.20
2017-07-26T09:49:14.606Z,16.20
2017-07-26T09:51:42.073Z,16.20
2017-07-26T09:54:10.280Z,16.30
2017-07-26T09:56:37.752Z,16.20
2017-07-26T09:59:05.236Z,16.30
2017-07-26T10:01:32.706Z,16.20
2017-07-26T10:04:01.700Z,16.20
2017-07-26T10:06:29.198Z,16.20
2017-07-26T10:08:56.643Z,16.20
2017-07-26T10:11:24.092Z,16.20
2017-07-26T10:13:51.692Z,16.20
2017-07-26T10:16:19.188Z,16.30
2017-07-26T10:18:46.666Z,16.20
2017-07-26T10:21:14.904Z,16.30
2017-07-26T10:23:42.458Z,16.20
2017-07-26T10:26:09.928Z,16.30
2017-07-26T10:28:37.472Z,16.30
2017-07-26T10:31:04.925Z,16.40
2017-07-26T10:33:32.392Z,16.40
2017-07-26T10:35:59.849Z,16.40
2017-07-26T10:38:27.285Z,16.40
2017-07-26T10:40:54.767Z,16.50
2017-07-26T10:43:22.208Z,16.50
2017-07-26T10:45:49.671Z,16.60
2017-07-26T10:48:17.132Z,16.60
2017-07-26T10:50:44.636Z,16.60
2017-07-26T10:53:12.116Z,16.60
2017-07-26T10:55:39.698Z,16.60
2017-07-26T10:58:07.168Z,16.70
2017-07-26T11:00:34.616Z,16.70
2017-07-26T11:03:02.091Z,16.70
2017-07-26T11:05:30.344Z,16.80
2017-07-26T11:07:57.791Z,16.80
2017-07-26T11:10:25.351Z,16.80
2017-07-26T11:12:52.809Z,16.80
2017-07-26T11:15:20.268Z,16.90
2017-07-26T11:17:47.840Z,16.90
2017-07-26T11:20:15.315Z,17.00
2017-07-26T11:22:43.532Z,17.00
2017-07-26T11:25:10.988Z,17.00
2017-07-26T11:27:38.466Z,17.10
2017-07-26T11:30:05.901Z,17.10
2017-07-26T11:32:33.424Z,17.10
2017-07-26T11:35:01.683Z,17.10
2017-07-26T11:37:29.130Z,17.10
2017-07-26T11:39:56.613Z,17.10
2017-07-26T11:42:24.068Z,17.10
2017-07-26T11:44:51.531Z,17.20
2017-07-26T11:47:18.984Z,17.10
2017-07-26T11:49:46.460Z,17.20
2017-07-26T11:52:13.922Z,17.20
2017-07-26T11:54:41.384Z,17.10
2017-07-26T11:57:08.861Z,17.10
2017-07-26T11:59:36.344Z,17.10
2017-07-26T12:02:03.823Z,17.10
2017-07-26T12:04:31.449Z,17.10
2017-07-26T12:06:58.910Z,17.10
2017-07-26T12:09:26.368Z,17.10
2017-07-26T12:11:54.582Z,17.10
2017-07-26T12:14:22.063Z,17.10
2017-07-26T12:16:49.509Z,17.20
2017-07-26T12:19:17.057Z,17.20
2017-07-26T12:21:44.548Z,17.20
2017-07-26T12:24:12.049Z,17.20
2017-07-26T12:26:39.512Z,17.20
2017-07-26T12:29:06.972Z,17.20
2017-07-26T12:31:34.473Z,17.20
2017-07-26T12:34:01.969Z,17.20
2017-07-26T12:36:30.169Z,17.20
2017-07-26T12:38:57.655Z,17.20
2017-07-26T12:41:25.148Z,17.30
2017-07-26T12:43:53.352Z,17.40
2017-07-26T12:46:20.886Z,17.40
2017-07-26T12:48:48.360Z,17.60
2017-07-26T12:51:15.865Z,17.60
2017-07-26T12:53:43.422Z,17.60
2017-07-26T12:56:10.888Z,17.70
2017-07-26T12:58:38.439Z,17.60
2017-07-26T13:01:05.912Z,17.70
2017-07-26T13:03:34.169Z,17.70
2017-07-26T13:06:01.618Z,17.70
2017-07-26T13:08:29.104Z,17.70
2017-07-26T13:10:57.344Z,17.70
2017-07-26T13:13:24.792Z,17.70
2017-07-26T13:15:52.264Z,17.80
2017-07-26T13:18:19.716Z,17.80
2017-07-26T13:20:47.214Z,17.80
2017-07-26T13:23:14.668Z,17.80
2017-07-26T13:25:42.889Z,17.80
2017-07-26T13:28:10.431Z,17.80
2017-07-26T13:30:37.865Z,17.80
2017-07-26T13:33:05.339Z,17.90
2017-07-26T13:35:32.792Z,17.90
2017-07-26T13:38:00.259Z,18.00
2017-07-26T13:40:27.751Z,18.00
2017-07-26T13:42:55.239Z,18.00
2017-07-26T13:45:23.453Z,18.00
2017-07-26T13:47:50.911Z,18.00
2017-07-26T13:50:18.389Z,18.00
2017-07-26T13:52:45.831Z,18.00
2017-07-26T13:55:13.324Z,18.00
2017-07-26T13:57:41.569Z,18.10
2017-07-26T14:00:09.047Z,18.10
2017-07-26T14:02:36.503Z,18.00
2017-07-26T14:05:03.947Z,18.10
2017-07-26T14:07:31.423Z,18.00
2017-07-26T14:09:59.670Z,18.00
2017-07-26T14:12:27.169Z,18.00
2017-07-26T14:14:55.382Z,18.10
2017-07-26T14:17:22.819Z,18.10
2017-07-26T14:19:50.305Z,18.10
2017-07-26T14:22:17.776Z,18.10
2017-07-26T14:24:45.249Z,18.20
2017-07-26T14:27:13.473Z,18.30
2017-07-26T14:29:40.955Z,18.30
2017-07-26T14:32:08.438Z,18.50
2017-07-26T14:34:35.893Z,18.60
2017-07-26T14:37:03.353Z,18.70
2017-07-26T14:39:31.673Z,18.80
2017-07-26T14:41:59.155Z,18.80
2017-07-26T14:44:26.638Z,19.00
2017-07-26T14:46:54.077Z,19.10
2017-07-26T14:49:21.599Z,19.20
2017-07-26T14:51:49.051Z,19.30
2017-07-26T14:54:16.520Z,19.60
2017-07-26T14:56:44.003Z,19.90
2017-07-26T14:59:11.460Z,20.20
2017-07-26T15:01:38.956Z,20.50
2017-07-26T15:04:06.474Z,20.70
2017-07-26T15:06:33.936Z,21.00
2017-07-26T15:09:01.398Z,21.20
2017-07-26T15:11:28.870Z,21.40
2017-07-26T15:13:57.141Z,21.30
2017-07-26T15:16:25.354Z,21.20
2017-07-26T15:18:52.849Z,21.20
2017-07-26T15:21:20.312Z,21.20
2017-07-26T15:23:47.806Z,21.30
2017-07-26T15:26:15.245Z,21.50
2017-07-26T15:28:43.476Z,21.80
2017-07-26T15:31:11.033Z,21.70
2017-07-26T15:33:38.484Z,21.90
2017-07-26T15:36:05.989Z,21.90
2017-07-26T15:38:34.215Z,21.90
2017-07-26T15:41:01.671Z,21.90
2017-07-26T15:43:29.132Z,22.00
2017-07-26T15:45:56.590Z,22.00
2017-07-26T15:48:24.083Z,22.10
2017-07-26T15:50:52.297Z,22.20
2017-07-26T15:53:19.774Z,22.20
2017-07-26T15:55:47.238Z,22.20
2017-07-26T15:58:14.712Z,22.00
2017-07-26T16:00:42.164Z,21.90
2017-07-26T16:03:09.645Z,21.80
2017-07-26T16:05:37.906Z,21.60
2017-07-26T16:08:05.353Z,21.60
2017-07-26T16:10:32.951Z,21.80
2017-07-26T16:13:01.152Z,21.80
2017-07-26T16:15:28.658Z,21.80
2017-07-26T16:17:56.879Z,21.90
2017-07-26T16:20:24.320Z,21.80
2017-07-26T16:22:51.862Z,21.80
2017-07-26T16:25:20.060Z,21.60
2017-07-26T16:27:47.563Z,21.60
2017-07-26T16:30:15.025Z,21.50
2017-07-26T16:32:42.473Z,21.40
2017-07-26T16:35:09.957Z,21.30
2017-07-26T16:37:38.184Z,21.10
2017-07-26T16:40:05.663Z,21.10
2017-07-26T16:42:33.100Z,21.10
2017-07-26T16:45:00.589Z,21.00
2017-07-26T16:47:28.060Z,21.00
2017-07-26T16:49:55.529Z,21.00
2017-07-26T16:52:23.011Z,21.00
2017-07-26T16:54:50.487Z,21.00
2017-07-26T16:57:17.946Z,21.00
2017-07-26T16:59:45.508Z,21.00
2017-07-26T17:02:13.013Z,21.00
2017-07-26T17:04:40.453Z,21.00
2017-07-26T17:07:08.715Z,21.00
2017-07-26T17:09:36.274Z,20.90
2017-07-26T17:12:03.717Z,21.00
2017-07-26T17:14:31.220Z,21.00
2017-07-26T17:16:58.669Z,21.00
2017-07-26T17:19:26.151Z,21.00
2017-07-26T17:21:53.610Z,21.00
2017-07-26T17:24:21.081Z,20.90
2017-07-26T17:26:48.545Z,20.90
2017-07-26T17:29:16.012Z,20.90
2017-07-26T17:31:43.501Z,20.80
2017-07-26T17:34:11.702Z,20.80
2017-07-26T17:36:39.156Z,20.80
2017-07-26T17:39:06.669Z,20.80
2017-07-26T17:41:34.916Z,20.80
2017-07-26T17:44:02.547Z,20.70
2017-07-26T17:46:30.024Z,20.70
2017-07-26T17:48:57.476Z,20.70
2017-07-26T17:51:24.969Z,20.60
2017-07-26T17:53:52.421Z,20.60
2017-07-26T17:56:19.863Z,20.60
2017-07-26T17:58:47.388Z,20.60
2017-07-26T18:01:14.833Z,20.60
2017-07-26T18:03:42.352Z,20.50
2017-07-26T18:06:10.587Z,20.50
2017-07-26T18:08:38.042Z,20.50
2017-07-26T18:11:05.514Z,20.50
2017-07-26T18:13:32.995Z,20.50
2017-07-26T18:16:00.460Z,20.40
2017-07-26T18:18:28.702Z,20.40
2017-07-26T18:20:56.177Z,20.40
2017-07-26T18:23:23.633Z,20.40
2017-07-26T18:25:51.099Z,20.30
2017-07-26T18:28:19.385Z,20.20
2017-07-26T18:30:47.608Z,20.20
2017-07-26T18:33:15.108Z,20.20
2017-07-26T18:35:43.364Z,20.10
2017-07-26T18:38:10.845Z,20.10
2017-07-26T18:40:39.084Z,20.00
2017-07-26T18:43:06.537Z,20.00
2017-07-26T18:45:34.020Z,19.90
2017-07-26T18:48:01.483Z,19.90
2017-07-26T18:50:29.825Z,19.80
2017-07-26T18:52:57.349Z,19.80
2017-07-26T18:55:24.804Z,19.70
2017-07-26T18:57:52.255Z,19.70
2017-07-26T19:00:19.760Z,19.70
2017-07-26T19:02:47.207Z,19.70
2017-07-26T19:05:14.676Z,19.70
2017-07-26T19:07:42.163Z,19.70
2017-07-26T19:10:09.685Z,19.60
2017-07-26T19:12:37.184Z,19.60
2017-07-26T19:15:04.670Z,19.60
2017-07-26T19:17:32.205Z,19.60
2017-07-26T19:19:59.668Z,19.60
2017-07-26T19:22:27.213Z,19.60
2017-07-26T19:24:55.438Z,19.50
2017-07-26T19:27:22.917Z,19.50
2017-07-26T19:29:50.388Z,19.50
2017-07-26T19:32:18.663Z,19.50
2017-07-26T19:34:46.998Z,19.50
2017-07-26T19:37:14.450Z,19.50
2017-07-26T19:39:41.951Z,19.50
2017-07-26T19:42:10.170Z,19.40
2017-07-26T19:44:37.703Z,19.40
2017-07-26T19:47:05.227Z,19.40
2017-07-26T19:49:32.706Z,19.40
2017-07-26T19:52:00.966Z,19.40
2017-07-26T19:54:29.196Z,19.40
2017-07-26T19:56:56.717Z,19.40
2017-07-26T19:59:24.184Z,19.30
2017-07-26T20:01:51.700Z,19.30
2017-07-26T20:04:19.249Z,19.30
2017-07-26T20:06:46.728Z,19.30
2017-07-26T20:09:14.197Z,19.20
2017-07-26T20:11:42.412Z,19.20
2017-07-26T20:14:09.909Z,19.10
2017-07-26T20:16:38.158Z,19.10
2017-07-26T20:19:05.629Z,19.10
2017-07-26T20:21:33.137Z,19.10
2017-07-26T20:24:00.661Z,19.00
2017-07-26T20:26:28.111Z,19.00
2017-07-26T20:28:56.370Z,19.00
2017-07-26T20:31:23.821Z,18.90
2017-07-26T20:33:51.384Z,18.90
2017-07-26T20:36:18.884Z,18.90
2017-07-26T20:38:47.146Z,18.80
2017-07-26T20:41:15.480Z,18.80
2017-07-26T20:43:42.937Z,18.80
2017-07-26T20:46:10.406Z,18.80
2017-07-26T20:48:37.878Z,18.80
2017-07-26T20:51:05.361Z,18.70
2017-07-26T20:53:32.884Z,18.70
2017-07-26T20:56:00.352Z,18.70
2017-07-26T20:58:28.569Z,18.70
2017-07-26T21:00:56.070Z,18.70
2017-07-26T21:03:24.307Z,18.60
2017-07-26T21:05:51.788Z,18.60
2017-07-26T21:08:19.248Z,18.60
2017-07-26T21:10:46.696Z,18.60
2017-07-26T21:13:14.209Z,18.50
2017-07-26T21:15:41.654Z,18.50
2017-07-26T21:18:09.904Z,18.50
2017-07-26T21:20:37.380Z,18.50
2017-07-26T21:23:05.633Z,18.40
2017-07-26T21:25:33.159Z,18.40
2017-07-26T21:28:00.625Z,18.40
2017-07-26T21:30:28.231Z,18.30
2017-07-26T21:32:56.449Z,18.20
2017-07-26T21:35:23.903Z,18.20
2017-07-26T21:37:51.400Z,18.20
2017-07-26T21:40:18.868Z,18.10
2017-07-26T21:42:46.401Z,18.10
2017-07-26T21:45:13.892Z,18.10
2017-07-26T21:47:42.121Z,17.90
2017-07-26T21:50:09.593Z,17.90
2017-07-26T21:52:37.071Z,17.90
2017-07-26T21:55:05.308Z,17.70
2017-07-26T21:57:32.762Z,17.70
2017-07-26T22:00:00.249Z,17.60
2017-07-26T22:02:27.734Z,17.60
2017-07-26T22:04:55.189Z,17.50
2017-07-26T22:07:22.681Z,17.50
2017-07-26T22:09:50.156Z,17.40
2017-07-26T22:12:17.625Z,17.40
2017-07-26T22:14:45.086Z,17.40
2017-07-26T22:17:12.575Z,17.40
2017-07-26T22:19:40.094Z,17.40
2017-07-26T22:22:08.317Z,17.40
2017-07-26T22:24:36.075Z,17.40
2017-07-26T22:27:03.537Z,17.40
2017-07-26T22:29:31.053Z,17.40
2017-07-26T22:31:59.286Z,17.40
2017-07-26T22:34:26.790Z,17.40
2017-07-26T22:36:54.244Z,17.40
2017-07-26T22:39:22.614Z,17.40
2017-07-26T22:41:50.198Z,17.40
2017-07-26T22:44:18.399Z,17.40
2017-07-26T22:46:45.920Z,17.40
2017-07-26T22:49:14.140Z,17.30
2017-07-26T22:51:41.594Z,17.30
2017-07-26T22:54:09.098Z,17.30
2017-07-26T22:56:36.548Z,17.30
2017-07-26T22:59:04.108Z,17.30
2017-07-26T23:01:31.555Z,17.30
2017-07-26T23:03:59.002Z,17.30
2017-07-26T23:06:26.578Z,17.30
2017-07-26T23:08:54.789Z,17.30
2017-07-26T23:11:22.259Z,17.20
2017-07-26T23:13:49.753Z,17.20
2017-07-26T23:16:17.379Z,17.20
2017-07-26T23:18:44.844Z,17.20
2017-07-26T23:21:12.336Z,17.10
2017-07-26T23:23:40.602Z,17.10
2017-07-26T23:26:08.084Z,17.10
2017-07-26T23:28:36.327Z,17.10
2017-07-26T23:31:03.788Z,17.10
2017-07-26T23:33:31.246Z,17.10
2017-07-26T23:35:58.744Z,17.10
2017-07-26T23:38:26.220Z,17.10
2017-07-26T23:40:53.658Z,17.10
2017-07-26T23:43:21.166Z,17.00
2017-07-26T23:45:48.602Z,17.10
2017-07-26T23:48:16.056Z,17.00
2017-07-26T23:50:43.524Z,17.00
2017-07-26T23:53:10.972Z,17.00
2017-07-26T23:55:38.456Z,17.00
2017-07-26T23:58:05.911Z,16.90
